Time;durP1;ratioP1;P1;durP2;ratioP2;P2;SDS_P1;SDS_P2;PMS_P1;PMS_P2;Temp;Humidity;BMP_temperature;BMP_pressure;BME280_temperature;BME280_humidity;BME280_pressure;Samples;Min_cycle;Max_cycle;Signal;HPM_P1;HPM_P2
2022/06/12 00:02:34;;;;;;;9.32;3.62;;;14.70;99.90;;;;;;7351469;32;20494;-63
2022/06/12 00:06:35;;;;;;;12.37;3.97;;;14.70;99.90;;;;;;7346302;32;20488;-63
2022/06/12 00:10:40;;;;;;;8.55;3.42;;;14.60;99.90;;;;;;7351173;32;20596;-63
2022/06/12 00:14:42;;;;;;;9.13;3.70;;;14.50;99.90;;;;;;7351447;32;20662;-62
2022/06/12 00:18:44;;;;;;;8.40;3.00;;;14.40;99.90;;;;;;7350741;32;20129;-63
2022/06/12 00:22:46;;;;;;;12.75;4.12;;;14.40;99.90;;;;;;7343747;32;20127;-63
2022/06/12 00:26:54;;;;;;;9.73;3.87;;;14.40;99.90;;;;;;7341141;32;20222;-62
2022/06/12 00:30:55;;;;;;;11.80;4.10;;;14.20;99.90;;;;;;7351066;32;20111;-62
2022/06/12 00:34:58;;;;;;;7.87;3.80;;;14.20;99.90;;;;;;7350754;32;20107;-62
2022/06/12 00:39:00;;;;;;;12.90;4.55;;;14.10;99.90;;;;;;7356974;32;20099;-63
2022/06/12 00:43:03;;;;;;;7.80;3.92;;;14.00;99.90;;;;;;7338605;32;20161;-62
2022/06/12 00:47:07;;;;;;;9.50;3.58;;;13.90;99.90;;;;;;7350868;32;20213;-63
2022/06/12 00:51:19;;;;;;;10.02;4.15;;;13.80;99.90;;;;;;7350592;32;20559;-62
2022/06/12 00:55:27;;;;;;;7.45;4.03;;;13.70;99.90;;;;;;7341622;32;20516;-63
2022/06/12 00:59:48;;;;;;;11.15;4.32;;;13.60;99.90;;;;;;7346868;32;20666;-61
2022/06/12 01:08:10;;;;;;;12.35;4.22;;;13.40;99.90;;;;;;7348470;32;20131;-63
2022/06/12 01:12:17;;;;;;;11.65;4.40;;;13.40;99.90;;;;;;7348146;32;20741;-63
2022/06/12 01:16:20;;;;;;;7.20;3.97;;;13.30;99.90;;;;;;7350313;32;20111;-62
2022/06/12 01:20:27;;;;;;;11.80;4.53;;;13.20;99.90;;;;;;7350322;32;20123;-62
2022/06/12 01:24:38;;;;;;;9.67;4.07;;;13.20;99.90;;;;;;7350237;32;20107;-62
2022/06/12 01:29:14;;;;;;;7.68;4.20;;;13.10;99.90;;;;;;7346336;32;20240;-62
2022/06/12 01:33:27;;;;;;;7.65;4.03;;;13.00;99.90;;;;;;7351125;32;20103;-62
2022/06/12 01:37:48;;;;;;;10.32;4.28;;;13.00;99.90;;;;;;7350514;32;20180;-61
2022/06/12 01:42:12;;;;;;;13.90;5.60;;;12.90;99.90;;;;;;7349066;32;20107;-62
2022/06/12 01:46:20;;;;;;;10.48;5.00;;;12.80;99.90;;;;;;7337752;32;20503;-63
2022/06/12 01:50:44;;;;;;;10.63;5.35;;;12.80;99.90;;;;;;7347482;32;20149;-60
2022/06/12 01:54:57;;;;;;;9.27;4.57;;;12.70;99.90;;;;;;7346040;32;20104;-60
2022/06/12 01:59:17;;;;;;;11.05;4.55;;;12.60;99.90;;;;;;7351924;32;20129;-60
2022/06/12 02:03:36;;;;;;;10.18;4.22;;;12.60;99.90;;;;;;7331023;32;20541;-60
2022/06/12 02:07:53;;;;;;;9.65;4.45;;;12.50;99.90;;;;;;7342285;32;20110;-60
2022/06/12 02:16:27;;;;;;;10.32;4.60;;;12.40;99.90;;;;;;7343989;32;20107;-61
2022/06/12 02:20:36;;;;;;;6.87;4.65;;;12.30;99.90;;;;;;7328730;32;20130;-62
2022/06/12 02:24:46;;;;;;;9.23;4.72;;;12.20;99.90;;;;;;7348189;32;20502;-62
2022/06/12 02:28:53;;;;;;;9.70;4.60;;;12.10;99.90;;;;;;7347849;32;20130;-61
2022/06/12 02:32:57;;;;;;;12.23;4.68;;;12.00;99.90;;;;;;7350209;32;20130;-63
2022/06/12 02:37:05;;;;;;;7.68;4.25;;;12.00;99.90;;;;;;7348183;32;20229;-62
2022/06/12 02:41:13;;;;;;;8.75;4.10;;;11.90;99.90;;;;;;7348145;32;20107;-62
2022/06/12 02:45:20;;;;;;;11.50;4.60;;;11.90;99.90;;;;;;7352587;32;20130;-62
2022/06/12 02:49:22;;;;;;;8.55;4.70;;;11.80;99.90;;;;;;7348239;32;20103;-62
2022/06/12 02:53:47;;;;;;;13.00;4.60;;;11.70;99.90;;;;;;7347920;32;20249;-63
2022/06/12 02:58:10;;;;;;;13.93;4.50;;;11.70;99.90;;;;;;7347987;32;20594;-62
2022/06/12 03:02:16;;;;;;;10.70;4.93;;;11.70;99.90;;;;;;7355087;32;20257;-62
2022/06/12 03:06:19;;;;;;;10.45;4.82;;;11.60;99.90;;;;;;7340234;32;20134;-62
2022/06/12 03:10:26;;;;;;;11.45;4.55;;;11.60;99.90;;;;;;7327422;32;20249;-59
2022/06/12 03:14:28;;;;;;;12.37;4.65;;;11.60;99.90;;;;;;7345698;32;20104;-59
2022/06/12 03:18:34;;;;;;;15.90;5.28;;;11.50;99.90;;;;;;7330802;32;20126;-60
2022/06/12 03:22:56;;;;;;;7.57;4.55;;;11.40;99.90;;;;;;7334692;32;20138;-60
2022/06/12 03:27:05;;;;;;;9.95;4.35;;;11.40;99.90;;;;;;7343214;32;20140;-60
2022/06/12 03:31:19;;;;;;;12.65;4.72;;;11.40;99.90;;;;;;7345937;32;20107;-60
2022/06/12 03:35:48;;;;;;;11.12;5.00;;;11.30;99.90;;;;;;7352111;32;20119;-60
2022/06/12 03:40:04;;;;;;;12.77;4.37;;;11.20;99.90;;;;;;7340462;32;20139;-60
2022/06/12 03:44:41;;;;;;;12.20;4.28;;;11.20;99.90;;;;;;7344783;32;20696;-60
2022/06/12 03:48:50;;;;;;;7.97;4.40;;;11.10;99.90;;;;;;7310685;32;20578;-59
2022/06/12 03:53:22;;;;;;;9.85;4.65;;;11.20;99.90;;;;;;7336585;32;20289;-60
2022/06/12 03:57:53;;;;;;;10.23;4.43;;;11.10;99.90;;;;;;7351709;32;20310;-61
2022/06/12 04:01:57;;;;;;;11.88;4.22;;;11.20;99.90;;;;;;7343890;32;20809;-60
2022/06/12 04:06:03;;;;;;;8.30;4.70;;;11.20;99.90;;;;;;7346219;32;20108;-60
2022/06/12 04:10:07;;;;;;;11.23;4.20;;;11.20;99.90;;;;;;7345233;32;20451;-60
2022/06/12 04:14:16;;;;;;;15.13;4.53;;;11.20;99.90;;;;;;7345359;32;20135;-60
2022/06/12 04:18:18;;;;;;;7.62;4.12;;;11.30;99.90;;;;;;7346197;32;20115;-61
2022/06/12 04:22:22;;;;;;;9.35;4.53;;;11.30;99.90;;;;;;7350430;32;20174;-60
2022/06/12 04:26:32;;;;;;;9.77;4.37;;;11.50;99.90;;;;;;7340528;32;20201;-61
2022/06/12 04:30:37;;;;;;;11.90;4.22;;;11.60;99.90;;;;;;7351083;32;20228;-61
2022/06/12 04:34:42;;;;;;;8.05;3.72;;;11.70;99.90;;;;;;7349958;32;20110;-60
2022/06/12 04:38:44;;;;;;;6.00;3.92;;;12.00;99.90;;;;;;7350897;32;20222;-62
2022/06/12 04:42:46;;;;;;;10.35;4.07;;;12.10;99.90;;;;;;7350518;32;20222;-60
2022/06/12 04:46:51;;;;;;;6.28;3.30;;;12.40;99.90;;;;;;7350756;32;20125;-61
2022/06/12 04:50:53;;;;;;;8.30;3.30;;;12.70;99.90;;;;;;7342339;32;20182;-61
2022/06/12 04:54:54;;;;;;;8.32;3.17;;;13.00;99.90;;;;;;7337383;32;20374;-62
2022/06/12 04:58:57;;;;;;;7.72;2.83;;;13.40;99.90;;;;;;7349327;32;20199;-61
2022/06/12 05:02:59;;;;;;;9.25;2.65;;;14.00;99.90;;;;;;7350933;32;20488;-60
2022/06/12 05:07:02;;;;;;;6.65;2.47;;;14.60;99.90;;;;;;7348659;32;20578;-60
2022/06/12 05:11:04;;;;;;;7.40;2.37;;;15.20;99.90;;;;;;7349405;32;20208;-60
2022/06/12 05:15:07;;;;;;;5.62;2.50;;;15.80;99.90;;;;;;7349698;32;20107;-61
2022/06/12 05:19:13;;;;;;;8.82;2.45;;;16.40;99.90;;;;;;7350461;32;20127;-60
2022/06/12 05:23:15;;;;;;;8.45;3.00;;;16.90;99.90;;;;;;7347213;32;20267;-62
2022/06/12 05:27:20;;;;;;;6.75;2.50;;;17.20;99.90;;;;;;7349588;32;20107;-60
2022/06/12 05:31:21;;;;;;;8.98;2.25;;;17.80;99.90;;;;;;7331371;32;20539;-61
2022/06/12 05:35:24;;;;;;;9.07;2.50;;;18.60;99.90;;;;;;7349703;32;20107;-60
2022/06/12 05:39:26;;;;;;;7.95;2.20;;;19.00;99.90;;;;;;7349105;32;20133;-60
2022/06/12 05:43:27;;;;;;;9.45;2.53;;;19.40;99.90;;;;;;7348930;32;20134;-60
2022/06/12 05:47:29;;;;;;;9.15;2.25;;;19.80;99.90;;;;;;7344470;32;20134;-61
2022/06/12 05:51:31;;;;;;;8.85;2.90;;;20.40;99.90;;;;;;7343801;32;20229;-61
2022/06/12 05:55:33;;;;;;;11.65;3.53;;;20.70;99.90;;;;;;7348958;32;20122;-62
2022/06/12 05:59:35;;;;;;;12.00;3.45;;;21.00;99.90;;;;;;7342421;32;20593;-61
2022/06/12 06:03:37;;;;;;;9.45;3.37;;;21.40;99.90;;;;;;7348963;32;20257;-61
2022/06/12 06:07:39;;;;;;;11.15;3.10;;;21.70;99.90;;;;;;7339795;32;20119;-61
2022/06/12 06:11:41;;;;;;;11.15;2.80;;;21.70;99.90;;;;;;7341163;32;20177;-61
2022/06/12 06:15:45;;;;;;;8.82;3.10;;;21.80;99.90;;;;;;7341539;32;20216;-60
2022/06/12 06:19:47;;;;;;;6.45;2.30;;;22.00;99.90;;;;;;7348819;32;20103;-60
2022/06/12 06:23:49;;;;;;;8.45;2.30;;;22.30;99.90;;;;;;7343974;32;20175;-60
2022/06/12 06:27:51;;;;;;;8.05;2.33;;;22.70;99.90;;;;;;7344909;32;20186;-63
2022/06/12 06:31:54;;;;;;;9.32;2.58;;;23.00;99.90;;;;;;7345697;32;20274;-65
2022/06/12 06:35:56;;;;;;;8.07;2.42;;;23.30;99.90;;;;;;7348510;32;20122;-64
2022/06/12 06:39:58;;;;;;;4.65;1.85;;;23.80;99.90;;;;;;7335704;32;20133;-64
2022/06/12 06:48:21;;;;;;;10.07;1.75;;;24.20;99.90;;;;;;7353091;32;20115;-64
2022/06/12 06:52:23;;;;;;;7.32;1.65;;;23.80;99.90;;;;;;7350712;32;20118;-63
2022/06/12 06:56:26;;;;;;;7.90;1.40;;;24.30;99.90;;;;;;7339588;32;20186;-64
2022/06/12 07:00:32;;;;;;;6.47;1.48;;;24.60;99.90;;;;;;7352397;32;20301;-64
2022/06/12 07:04:35;;;;;;;8.10;1.62;;;24.30;96.80;;;;;;7345637;32;20242;-64
2022/06/12 07:08:38;;;;;;;8.57;1.80;;;24.20;97.20;;;;;;7349251;32;20327;-63
2022/06/12 07:12:40;;;;;;;7.50;2.08;;;23.80;98.40;;;;;;7348532;32;20167;-63
2022/06/12 07:16:42;;;;;;;10.00;2.50;;;24.20;98.90;;;;;;7348266;32;20163;-63
2022/06/12 07:20:49;;;;;;;8.85;2.42;;;23.80;98.20;;;;;;7345538;32;20129;-63
2022/06/12 07:24:50;;;;;;;9.82;2.28;;;23.20;98.10;;;;;;7352149;32;20507;-63
2022/06/12 07:28:52;;;;;;;8.38;2.12;;;23.50;99.90;;;;;;7352091;32;20211;-63
2022/06/12 07:32:54;;;;;;;10.45;2.92;;;23.50;99.90;;;;;;7341402;32;20125;-63
2022/06/12 07:36:56;;;;;;;12.15;2.97;;;23.30;99.90;;;;;;7352258;32;20475;-63
2022/06/12 07:41:01;;;;;;;8.82;2.30;;;22.80;99.90;;;;;;7335224;32;20103;-63
2022/06/12 07:45:03;;;;;;;6.37;2.30;;;22.50;99.90;;;;;;7352901;32;20260;-63
2022/06/12 07:49:05;;;;;;;6.60;1.50;;;22.50;99.90;;;;;;7349817;32;20206;-63
2022/06/12 07:53:08;;;;;;;6.93;1.40;;;22.20;97.10;;;;;;7350921;32;20122;-64
2022/06/12 07:57:10;;;;;;;7.28;1.80;;;22.20;99.30;;;;;;7351547;32;20130;-63
2022/06/12 08:01:16;;;;;;;5.30;0.95;;;22.40;95.40;;;;;;7341593;32;20119;-63
2022/06/12 08:05:20;;;;;;;5.53;1.00;;;22.70;94.10;;;;;;7348016;32;20319;-63
2022/06/12 08:09:23;;;;;;;6.85;1.30;;;22.20;94.40;;;;;;7351449;32;20523;-64
2022/06/12 08:13:25;;;;;;;5.10;1.10;;;22.40;93.30;;;;;;7349754;32;20590;-65
2022/06/12 08:17:26;;;;;;;6.10;1.30;;;22.30;93.60;;;;;;7345219;32;20507;-64
2022/06/12 08:21:28;;;;;;;5.07;0.90;;;22.70;91.70;;;;;;7350060;32;20587;-64
2022/06/12 08:25:34;;;;;;;5.45;1.02;;;22.90;91.10;;;;;;7350557;32;20107;-66
2022/06/12 08:29:36;;;;;;;4.78;1.10;;;23.30;90.10;;;;;;7348318;32;20515;-64
2022/06/12 08:33:39;;;;;;;2.72;0.60;;;23.60;91.30;;;;;;7350658;32;20498;-64
2022/06/12 08:37:41;;;;;;;3.85;1.00;;;23.80;79.60;;;;;;7350873;32;20438;-64
2022/06/12 08:41:54;;;;;;;5.65;0.80;;;23.90;78.70;;;;;;7349604;32;20107;-64
2022/06/12 08:46:04;;;;;;;4.22;0.90;;;24.30;79.20;;;;;;7337117;32;20240;-63
2022/06/12 08:50:20;;;;;;;6.20;1.25;;;24.60;80.30;;;;;;7349890;32;20441;-64
2022/06/12 08:54:29;;;;;;;4.82;1.15;;;25.30;78.50;;;;;;7348949;32;20141;-64
2022/06/12 08:58:41;;;;;;;6.62;1.40;;;25.30;76.30;;;;;;7335202;32;20219;-64
2022/06/12 09:02:44;;;;;;;4.93;1.23;;;25.30;78.50;;;;;;7348719;32;20151;-64
2022/06/12 09:07:06;;;;;;;5.75;1.35;;;25.10;81.00;;;;;;7349023;32;20514;-64
2022/06/12 09:11:20;;;;;;;7.22;1.42;;;25.10;74.10;;;;;;7349755;32;20250;-64
2022/06/12 09:15:22;;;;;;;8.45;1.33;;;26.00;86.50;;;;;;7344670;32;20229;-64
2022/06/12 09:19:39;;;;;;;7.00;1.30;;;25.90;73.90;;;;;;7349159;32;20108;-64
2022/06/12 09:24:02;;;;;;;5.72;1.33;;;25.70;77.00;;;;;;7349787;32;20129;-63
2022/06/12 09:28:34;;;;;;;6.50;1.20;;;26.00;77.90;;;;;;7349227;32;20107;-64
2022/06/12 09:33:01;;;;;;;8.52;1.65;;;25.80;77.10;;;;;;7331626;32;20830;-64
2022/06/12 09:42:15;;;;;;;9.98;1.45;;;26.40;78.60;;;;;;7349802;32;20226;-65
2022/06/12 09:46:22;;;;;;;3.47;0.98;;;26.50;78.30;;;;;;7328658;32;20293;-63
2022/06/12 09:50:36;;;;;;;6.30;1.23;;;26.40;71.80;;;;;;7345914;32;20133;-64
2022/06/12 09:55:11;;;;;;;4.80;1.40;;;26.10;71.70;;;;;;7346210;32;20440;-64
2022/06/12 09:59:23;;;;;;;4.75;1.40;;;26.60;76.70;;;;;;7349460;32;20499;-64
2022/06/12 10:03:47;;;;;;;5.85;1.23;;;26.10;78.90;;;;;;7338396;32;20534;-65
2022/06/12 10:08:07;;;;;;;7.45;1.45;;;26.80;75.10;;;;;;7345859;32;20312;-64
2022/06/12 10:12:16;;;;;;;5.78;1.25;;;27.10;76.30;;;;;;7345787;32;20121;-64
2022/06/12 10:16:34;;;;;;;5.30;1.27;;;26.70;72.40;;;;;;7351216;32;20554;-64
2022/06/12 10:21:03;;;;;;;6.37;1.50;;;26.50;68.20;;;;;;7339488;32;20624;-64
2022/06/12 10:25:07;;;;;;;5.57;1.40;;;26.70;71.40;;;;;;7346800;32;20179;-65
2022/06/12 10:29:14;;;;;;;4.60;1.35;;;26.50;73.40;;;;;;7347331;32;20206;-65
2022/06/12 10:33:23;;;;;;;;;;;26.40;66.20;;;;;;7350672;32;20121;-65
2022/06/12 10:37:28;;;;;;;5.05;1.20;;;26.90;72.70;;;;;;7348821;32;20381;-65
2022/06/12 10:41:31;;;;;;;7.45;1.30;;;26.70;67.60;;;;;;7347111;32;20219;-64
2022/06/12 10:45:36;;;;;;;8.93;1.40;;;26.70;67.90;;;;;;7348371;32;20260;-64
2022/06/12 10:49:38;;;;;;;4.25;1.20;;;26.50;73.70;;;;;;7338510;32;20183;-64
2022/06/12 10:53:40;;;;;;;6.62;1.45;;;26.70;78.10;;;;;;7347905;32;20188;-64
2022/06/12 10:57:55;;;;;;;6.80;1.30;;;26.00;70.30;;;;;;7346617;32;20338;-64
2022/06/12 11:02:06;;;;;;;7.18;1.48;;;25.70;75.10;;;;;;7349431;32;20111;-64
2022/06/12 11:06:13;;;;;;;10.25;1.92;;;25.90;72.50;;;;;;7341582;32;20107;-64
2022/06/12 11:11:03;;;;;;;7.12;1.50;;;25.50;76.90;;;;;;7347446;32;20103;-64
2022/06/12 11:15:20;;;;;;;5.22;1.37;;;25.50;77.90;;;;;;7346645;32;20108;-64
2022/06/12 11:19:34;;;;;;;6.07;1.25;;;25.60;76.90;;;;;;7339250;32;20503;-64
2022/06/12 11:23:54;;;;;;;9.57;2.33;;;25.50;78.70;;;;;;7352347;32;20912;-65
2022/06/12 11:28:19;;;;;;;9.25;1.87;;;25.30;80.60;;;;;;7338237;32;20107;-65
2022/06/12 11:32:47;;;;;;;11.27;1.60;;;24.90;83.60;;;;;;7350619;32;20239;-65
2022/06/12 11:37:01;;;;;;;5.45;1.67;;;24.70;83.10;;;;;;7352049;32;20115;-65
2022/06/12 11:41:05;;;;;;;7.37;1.50;;;24.70;81.50;;;;;;7350409;32;20111;-65
2022/06/12 11:45:30;;;;;;;7.35;1.80;;;24.60;83.00;;;;;;7349965;32;20111;-64
2022/06/12 11:49:50;;;;;;;6.78;1.67;;;24.30;80.90;;;;;;7338562;32;20343;-64
2022/06/12 11:54:06;;;;;;;6.10;1.50;;;24.30;78.90;;;;;;7338374;32;20192;-65
2022/06/12 11:58:31;;;;;;;10.18;2.05;;;24.80;90.10;;;;;;7342558;32;20474;-65
2022/06/12 12:02:55;;;;;;;12.32;2.15;;;25.00;79.10;;;;;;7350016;32;20136;-64
2022/06/12 12:07:18;;;;;;;8.43;1.60;;;24.80;79.00;;;;;;7353713;32;20243;-64
2022/06/12 12:11:40;;;;;;;7.78;1.58;;;25.00;82.90;;;;;;7347575;32;20655;-64
2022/06/12 12:15:49;;;;;;;10.18;1.70;;;25.30;75.90;;;;;;7350574;32;20132;-64
2022/06/12 12:19:59;;;;;;;6.72;1.50;;;25.30;79.50;;;;;;7351053;32;20265;-65
2022/06/12 12:24:04;;;;;;;5.68;1.67;;;25.10;79.50;;;;;;7343308;32;20134;-64
2022/06/12 12:28:41;;;;;;;10.07;1.60;;;25.00;75.80;;;;;;7349985;32;20613;-65
2022/06/12 12:32:52;;;;;;;8.65;1.77;;;25.30;80.10;;;;;;7350962;32;20104;-65
2022/06/12 12:41:42;;;;;;;9.70;2.28;;;25.20;83.30;;;;;;7347322;32;20107;-64
2022/06/12 12:45:44;;;;;;;9.40;2.10;;;25.00;83.40;;;;;;7349557;32;20182;-63
2022/06/12 12:49:47;;;;;;;8.80;1.92;;;25.00;82.10;;;;;;7353341;32;20194;-64
2022/06/12 12:53:52;;;;;;;11.07;1.73;;;24.80;84.10;;;;;;7349576;32;20636;-64
2022/06/12 12:57:56;;;;;;;9.25;2.05;;;25.00;81.50;;;;;;7348026;32;20250;-64
2022/06/12 13:01:59;;;;;;;7.22;2.40;;;24.80;80.20;;;;;;7349316;32;20111;-64
2022/06/12 13:06:48;;;;;;;7.18;1.80;;;24.40;82.10;;;;;;7336861;32;20182;-64
2022/06/12 13:11:12;;;;;;;5.12;1.50;;;24.70;78.70;;;;;;7339740;32;20478;-63
2022/06/12 13:15:54;;;;;;;7.12;1.60;;;24.80;76.70;;;;;;7337694;32;20203;-64
2022/06/12 13:20:37;;;;;;;9.45;1.80;;;24.90;76.40;;;;;;7310630;32;20168;-64
2022/06/12 13:24:46;;;;;;;5.62;1.70;;;24.50;78.00;;;;;;7311750;32;20606;-64
2022/06/12 13:28:57;;;;;;;6.57;2.00;;;23.90;81.10;;;;;;7349219;32;20103;-64
2022/06/12 13:33:27;;;;;;;9.20;1.80;;;23.80;83.80;;;;;;7348589;32;20219;-64
2022/06/12 13:37:33;;;;;;;5.43;1.42;;;24.20;88.00;;;;;;7346005;32;20119;-64
2022/06/12 13:41:40;;;;;;;9.40;1.75;;;24.00;80.30;;;;;;7340660;32;20186;-65
2022/06/12 13:46:01;;;;;;;;;;;23.90;84.10;;;;;;7346676;32;20123;-64
2022/06/12 13:50:20;;;;;;;10.25;2.03;;;23.50;86.90;;;;;;7334043;32;20011;-64
2022/06/12 13:54:25;;;;;;;10.73;2.03;;;23.10;89.20;;;;;;7336515;32;20125;-65
2022/06/12 13:58:32;;;;;;;7.10;2.20;;;22.90;89.90;;;;;;7338953;32;20202;-65
2022/06/12 14:02:36;;;;;;;;;;;23.40;88.40;;;;;;7336734;32;20195;-64
2022/06/12 14:06:39;;;;;;;8.02;1.75;;;23.50;82.90;;;;;;7340470;32;20161;-64
2022/06/12 14:10:48;;;;;;;9.82;1.80;;;23.70;87.70;;;;;;7341302;32;20276;-64
2022/06/12 14:14:51;;;;;;;6.65;1.50;;;23.70;83.30;;;;;;7337750;32;20163;-64
2022/06/12 14:18:55;;;;;;;9.13;1.60;;;23.80;87.60;;;;;;7337828;32;20540;-66
2022/06/12 14:23:15;;;;;;;8.38;1.73;;;23.70;84.20;;;;;;7343646;32;20111;-65
2022/06/12 14:27:38;;;;;;;5.15;1.60;;;23.70;88.90;;;;;;7335813;32;20103;-66
2022/06/12 14:31:40;;;;;;;7.93;1.70;;;23.60;86.90;;;;;;7344589;32;20606;-65
2022/06/12 14:35:44;;;;;;;6.35;1.80;;;23.30;86.00;;;;;;7341442;32;20104;-67
2022/06/12 14:39:46;;;;;;;5.82;1.50;;;23.20;87.50;;;;;;7337652;32;20175;-67
2022/06/12 14:43:53;;;;;;;5.75;1.70;;;23.30;85.80;;;;;;7343416;32;20237;-68
2022/06/12 14:47:55;;;;;;;12.57;1.95;;;23.00;87.20;;;;;;7340504;32;20107;-63
2022/06/12 14:51:57;;;;;;;10.68;1.30;;;22.90;86.30;;;;;;7354526;32;20493;-63
2022/06/12 14:56:02;;;;;;;8.20;1.62;;;23.00;86.00;;;;;;7336662;32;20111;-62
2022/06/12 15:00:06;;;;;;;5.80;1.40;;;23.20;83.50;;;;;;7343262;32;20494;-63
2022/06/12 15:04:10;;;;;;;5.90;1.40;;;23.50;87.80;;;;;;7346512;32;20233;-64
2022/06/12 15:08:12;;;;;;;6.12;1.50;;;23.80;85.00;;;;;;7346029;32;20245;-64
2022/06/12 15:12:17;;;;;;;9.80;1.80;;;23.70;82.90;;;;;;7348396;32;20122;-67
2022/06/12 15:16:21;;;;;;;8.40;1.83;;;23.90;79.80;;;;;;7347800;32;21789;-68
2022/06/12 15:20:23;;;;;;;5.50;1.45;;;23.90;79.00;;;;;;7342529;32;20583;-68
2022/06/12 15:24:24;;;;;;;4.97;1.50;;;23.90;80.30;;;;;;7345688;32;20126;-66
2022/06/12 15:32:46;;;;;;;8.85;1.75;;;23.20;79.80;;;;;;7347858;32;20129;-67
2022/06/12 15:36:55;;;;;;;5.28;1.33;;;22.80;79.70;;;;;;7339955;32;20856;-66
2022/06/12 15:40:56;;;;;;;7.37;1.40;;;22.90;81.90;;;;;;7337366;32;20611;-68
2022/06/12 15:44:59;;;;;;;4.22;1.48;;;22.90;80.10;;;;;;7342161;32;20824;-67
2022/06/12 15:49:01;;;;;;;8.88;1.40;;;23.20;79.90;;;;;;7350341;32;20420;-68
2022/06/12 15:53:02;;;;;;;4.47;1.30;;;23.20;78.70;;;;;;7339871;32;20518;-69
2022/06/12 15:57:04;;;;;;;4.40;1.30;;;22.90;79.50;;;;;;7340166;32;20111;-67
2022/06/12 16:01:12;;;;;;;9.73;1.62;;;22.90;80.80;;;;;;7343758;32;20385;-67
2022/06/12 16:05:14;;;;;;;6.75;1.50;;;22.80;80.80;;;;;;7329334;32;20198;-66
2022/06/12 16:09:17;;;;;;;6.78;1.45;;;22.70;81.60;;;;;;7347433;32;20505;-59
2022/06/12 16:13:19;;;;;;;6.22;1.52;;;22.80;82.20;;;;;;7348810;32;20140;-63
2022/06/12 16:17:20;;;;;;;7.25;1.65;;;22.60;77.60;;;;;;7341452;32;20241;-63
2022/06/12 16:21:22;;;;;;;9.15;1.95;;;22.50;81.90;;;;;;7339492;32;20174;-63
2022/06/12 16:25:25;;;;;;;13.25;2.33;;;22.60;83.80;;;;;;7349811;32;20111;-62
2022/06/12 16:29:27;;;;;;;5.32;1.65;;;22.30;81.60;;;;;;7344332;32;20464;-64
2022/06/12 16:33:29;;;;;;;5.47;1.95;;;22.50;79.60;;;;;;7342060;32;22017;-62
2022/06/12 16:37:35;;;;;;;11.95;2.17;;;22.00;81.80;;;;;;7353035;32;20546;-62
2022/06/12 16:41:46;;;;;;;10.65;2.17;;;21.90;85.40;;;;;;7348111;32;20485;-63
2022/06/12 16:45:49;;;;;;;5.85;1.60;;;21.90;84.90;;;;;;7340373;32;20264;-64
2022/06/12 16:49:50;;;;;;;8.32;1.50;;;22.10;84.70;;;;;;7347045;32;20122;-63
2022/06/12 16:53:53;;;;;;;5.20;1.50;;;21.90;86.60;;;;;;7345781;32;20130;-66
2022/06/12 16:57:55;;;;;;;8.77;2.00;;;22.00;89.30;;;;;;7346646;32;20112;-65
2022/06/12 17:01:57;;;;;;;7.75;2.25;;;21.90;90.20;;;;;;7352793;32;20115;-63
2022/06/12 17:05:59;;;;;;;9.35;2.37;;;21.80;90.00;;;;;;7347069;32;20164;-63
2022/06/12 17:10:01;;;;;;;4.93;1.58;;;21.80;91.60;;;;;;7344145;32;20116;-64
2022/06/12 17:14:04;;;;;;;9.18;1.85;;;21.70;91.60;;;;;;7347006;32;20106;-64
2022/06/12 17:22:28;;;;;;;7.18;2.17;;;21.80;92.00;;;;;;7336573;32;20203;-64
2022/06/12 17:26:30;;;;;;;8.02;2.55;;;21.70;91.80;;;;;;7341319;32;20131;-64
2022/06/12 17:30:31;;;;;;;8.23;2.10;;;21.60;92.70;;;;;;7343131;32;20237;-64
2022/06/12 17:34:34;;;;;;;8.90;1.75;;;21.60;92.50;;;;;;7339782;32;20210;-64
2022/06/12 17:38:35;;;;;;;7.82;1.83;;;21.60;92.50;;;;;;7343729;32;20127;-64
2022/06/12 17:42:37;;;;;;;9.10;2.10;;;21.40;94.10;;;;;;7334293;32;20147;-65
2022/06/12 17:46:39;;;;;;;8.57;1.83;;;21.20;95.10;;;;;;7334354;32;20137;-66
2022/06/12 17:50:42;;;;;;;8.48;2.08;;;21.30;93.80;;;;;;7343073;32;20111;-59
2022/06/12 17:54:43;;;;;;;12.45;5.60;;;21.10;94.80;;;;;;7335843;32;20433;-64
2022/06/12 17:58:45;;;;;;;9.40;1.92;;;21.00;96.20;;;;;;7343015;32;20111;-61
2022/06/12 18:02:48;;;;;;;7.85;1.92;;;20.90;95.60;;;;;;7335719;32;20112;-62
2022/06/12 18:06:50;;;;;;;5.57;1.50;;;20.70;96.50;;;;;;7345155;32;20138;-58
2022/06/12 18:10:52;;;;;;;5.00;1.80;;;20.60;97.00;;;;;;7338583;32;20108;-62
2022/06/12 18:19:24;;;;;;;5.00;1.50;;;20.40;96.50;;;;;;7345678;32;20719;-63
2022/06/12 18:23:26;;;;;;;6.25;1.65;;;20.20;96.90;;;;;;7339004;32;20099;-63
2022/06/12 18:27:30;;;;;;;6.57;1.50;;;20.10;98.40;;;;;;7338510;32;20157;-63
2022/06/12 18:31:32;;;;;;;8.48;2.08;;;20.00;96.70;;;;;;7348357;32;20104;-63
2022/06/12 18:35:49;;;;;;;7.30;1.23;;;19.90;98.90;;;;;;7341239;32;20289;-62
2022/06/12 18:39:51;;;;;;;4.35;1.17;;;19.80;97.90;;;;;;7343240;32;20530;-65
2022/06/12 18:43:53;;;;;;;4.68;1.27;;;19.70;96.70;;;;;;7355356;32;20103;-65
2022/06/12 18:47:54;;;;;;;6.25;1.40;;;19.60;95.90;;;;;;7347387;32;20443;-67
2022/06/12 18:51:56;;;;;;;3.97;0.90;;;19.40;95.60;;;;;;7355927;32;20112;-66
2022/06/12 18:56:04;;;;;;;7.30;1.30;;;19.30;95.20;;;;;;7341653;32;20130;-65
2022/06/12 19:00:10;;;;;;;9.05;1.33;;;19.10;96.00;;;;;;7345132;32;20245;-65
2022/06/12 19:04:12;;;;;;;3.60;1.10;;;19.00;98.70;;;;;;7346999;32;20171;-65
2022/06/12 19:08:14;;;;;;;6.15;1.20;;;18.90;98.20;;;;;;7345673;32;20483;-65
2022/06/12 19:12:15;;;;;;;4.90;1.05;;;18.80;97.70;;;;;;7349903;32;20221;-65
2022/06/12 19:16:38;;;;;;;4.03;1.02;;;18.70;98.30;;;;;;7342938;32;20695;-65
2022/06/12 19:20:40;;;;;;;5.20;1.25;;;18.60;98.40;;;;;;7344718;32;21008;-64
2022/06/12 19:24:42;;;;;;;5.30;1.27;;;18.50;99.00;;;;;;7347230;32;20753;-65
2022/06/12 19:28:44;;;;;;;5.25;1.17;;;18.30;99.90;;;;;;7351494;32;20103;-65
2022/06/12 19:32:46;;;;;;;7.28;1.48;;;18.20;99.90;;;;;;7340404;32;20133;-65
2022/06/12 19:36:48;;;;;;;5.28;1.00;;;18.10;99.90;;;;;;7347009;32;20111;-65
2022/06/12 19:40:52;;;;;;;5.68;1.17;;;18.00;99.90;;;;;;7347714;32;20107;-64
2022/06/12 19:44:53;;;;;;;5.62;1.15;;;17.90;99.90;;;;;;7340545;32;20103;-64
2022/06/12 19:48:55;;;;;;;6.30;1.20;;;17.80;99.90;;;;;;7342841;32;20518;-64
2022/06/12 19:52:57;;;;;;;4.12;1.08;;;17.70;99.90;;;;;;7337313;32;20107;-65
2022/06/12 19:56:58;;;;;;;5.05;1.35;;;17.60;99.90;;;;;;7350120;32;20206;-64
2022/06/12 20:01:04;;;;;;;3.85;1.10;;;17.50;99.90;;;;;;7339966;32;20122;-65
2022/06/12 20:09:27;;;;;;;8.90;1.35;;;17.20;99.90;;;;;;7344262;32;20135;-62
2022/06/12 20:13:28;;;;;;;4.45;1.20;;;17.00;99.90;;;;;;7349537;32;20217;-63
2022/06/12 20:17:30;;;;;;;5.90;1.17;;;17.00;99.90;;;;;;7342502;32;20231;-64
2022/06/12 20:21:32;;;;;;;5.22;1.30;;;16.80;99.90;;;;;;7341403;32;21420;-64
2022/06/12 20:25:34;;;;;;;7.97;1.70;;;16.60;99.90;;;;;;7341548;32;20614;-61
2022/06/12 20:29:36;;;;;;;6.72;1.70;;;16.50;99.90;;;;;;7348992;32;20125;-62
2022/06/12 20:33:38;;;;;;;4.65;1.60;;;16.30;99.90;;;;;;7346814;32;20664;-61
2022/06/12 20:37:40;;;;;;;4.37;1.50;;;16.20;99.90;;;;;;7344745;32;20111;-63
2022/06/12 20:41:42;;;;;;;5.72;1.85;;;16.10;99.90;;;;;;7343288;32;20217;-61
2022/06/12 20:45:46;;;;;;;7.78;1.37;;;15.90;99.90;;;;;;7346929;32;20131;-63
2022/06/12 20:49:48;;;;;;;5.62;1.35;;;15.70;99.90;;;;;;7344933;32;20688;-62
2022/06/12 20:53:50;;;;;;;6.45;1.48;;;15.60;99.90;;;;;;7343444;32;20210;-62
2022/06/12 20:57:51;;;;;;;7.57;1.50;;;15.40;99.90;;;;;;7347020;32;20107;-62
2022/06/12 21:01:53;;;;;;;5.05;1.60;;;15.20;99.90;;;;;;7341546;32;20129;-61
2022/06/12 21:05:55;;;;;;;4.90;1.35;;;15.10;99.90;;;;;;7340140;32;20149;-62
2022/06/12 21:10:16;;;;;;;5.12;1.40;;;15.00;99.90;;;;;;7339630;32;20096;-61
2022/06/12 21:14:18;;;;;;;7.40;1.50;;;14.90;99.90;;;;;;7350943;32;20198;-62
2022/06/12 21:18:21;;;;;;;9.43;2.28;;;14.80;99.90;;;;;;7345285;32;20206;-62
2022/06/12 21:22:23;;;;;;;11.48;1.60;;;14.70;99.90;;;;;;7339500;32;20234;-62
2022/06/12 21:26:29;;;;;;;3.67;1.45;;;14.50;99.90;;;;;;7333976;32;20183;-62
2022/06/12 21:30:30;;;;;;;7.47;2.17;;;14.40;99.90;;;;;;7343110;32;20181;-61
2022/06/12 21:34:33;;;;;;;5.12;1.48;;;14.40;99.90;;;;;;7350260;32;20887;-61
2022/06/12 21:38:35;;;;;;;3.92;1.52;;;14.30;99.90;;;;;;7328844;32;20217;-61
2022/06/12 21:42:39;;;;;;;5.90;1.48;;;14.30;99.90;;;;;;7337969;32;20125;-60
2022/06/12 21:46:41;;;;;;;6.97;1.55;;;14.20;99.90;;;;;;7338208;32;20499;-59
2022/06/12 21:50:43;;;;;;;5.45;1.30;;;14.20;99.90;;;;;;7345062;32;20541;-59
2022/06/12 21:54:46;;;;;;;5.60;1.48;;;14.20;99.90;;;;;;7340671;32;20534;-60
2022/06/12 21:58:48;;;;;;;6.57;1.87;;;14.00;99.90;;;;;;7336568;32;20340;-60
2022/06/12 22:02:50;;;;;;;5.93;1.87;;;13.80;99.90;;;;;;7344036;32;20142;-60
2022/06/12 22:06:52;;;;;;;6.22;1.60;;;13.70;99.90;;;;;;7339008;32;20154;-60